South Chelmsford, Massachusetts
Current Conditions -  °F | °C
As of 3:56 PM on Monday 24 Nov 2014 (Local Time) from KBED Reporting Station
Overcast Overcast  
Wind Chill: 64°   Ceiling: 2500
Heat Index: 64°   Visibility: 10mi
Dew Point: 60°   Wind: 12mph
Humidity: 87%   Direction: 190°S
Pressure: 29.57"   Gusts: 21mph
Location:  42.5915°N, 71.3555°W
Report Text: KBED 242056Z 19010G18KT 10SM BKN025 OVC032 18/16 A2957 RMK AO2 SLP025 T01780156 56010
Loading
Personal Weather Stations






























Interactive Weather Map New forecast layout! Learn more

10-Day Weather Forecast

Advertisements
Track Severe Weather on mobile